ETH925 HAAB-FOOL
Flight info
| Callsign | ETH925 |
|---|---|
| Flight time | 4h 8m |
| Altitude | 38000 |
| Route | BRO3A BRO DCT KAFIA UA410 MPK UG625 ONKAR ONKAR2L |
| Aircraft | A359/H-SDE2E3GHIJ3J4J5LM1ORWXY/LB1D1 |
Departure
| Time | 2026-04-20 13:31 |
|---|---|
| Airport | Addis Ababa Bole International Airport (HAAB) |
Arrival
| Time | 2026-04-20 17:40 |
|---|---|
| Airport | Libreville Leon M'ba International Airport (FOOL) |
| Time | Latitude | Longitude | Altitude | Speed | Heading |
|---|---|---|---|---|---|
| 2026-04-20 12:54 | 8.98249 | 38.79726 | 7627 ft | 0 kts | 341° |
| 2026-04-20 13:16 | 8.98244 | 38.79728 | 7627 ft | 4 kts | 341° |
| 2026-04-20 13:17 | 8.98221 | 38.79736 | 7629 ft | 4 kts | 338° |
| 2026-04-20 13:17 | 8.98202 | 38.79750 | 7634 ft | 4 kts | 282° |
| 2026-04-20 13:17 | 8.98204 | 38.79775 | 7632 ft | 4 kts | 251° |
| 2026-04-20 13:17 | 8.98209 | 38.79789 | 7631 ft | 1 kts | 253° |
| 2026-04-20 13:18 | 8.98209 | 38.79790 | 7631 ft | 0 kts | 253° |
| 2026-04-20 13:24 | 8.98209 | 38.79788 | 7627 ft | 1 kts | 253° |
| 2026-04-20 13:24 | 8.98199 | 38.79758 | 7627 ft | 13 kts | 252° |
| 2026-04-20 13:25 | 8.98150 | 38.79661 | 7627 ft | 15 kts | 221° |
| 2026-04-20 13:25 | 8.98101 | 38.79590 | 7627 ft | 11 kts | 245° |
| 2026-04-20 13:25 | 8.98083 | 38.79537 | 7627 ft | 10 kts | 252° |
| 2026-04-20 13:26 | 8.98078 | 38.79519 | 7627 ft | 10 kts | 253° |
| 2026-04-20 13:26 | 8.98058 | 38.79451 | 7627 ft | 10 kts | 254° |
| 2026-04-20 13:26 | 8.98033 | 38.79367 | 7627 ft | 15 kts | 253° |
| 2026-04-20 13:26 | 8.98004 | 38.79267 | 7627 ft | 14 kts | 253° |
| 2026-04-20 13:27 | 8.97976 | 38.79172 | 7627 ft | 14 kts | 254° |
| 2026-04-20 13:27 | 8.97943 | 38.79056 | 7627 ft | 20 kts | 254° |
| 2026-04-20 13:27 | 8.97903 | 38.78919 | 7627 ft | 24 kts | 253° |
| 2026-04-20 13:27 | 8.97851 | 38.78763 | 7627 ft | 22 kts | 235° |
| 2026-04-20 13:28 | 8.97770 | 38.78661 | 7627 ft | 19 kts | 242° |
| 2026-04-20 13:28 | 8.97747 | 38.78535 | 7627 ft | 16 kts | 279° |
| 2026-04-20 13:28 | 8.97797 | 38.78475 | 7627 ft | 9 kts | 298° |
| 2026-04-20 13:28 | 8.97781 | 38.78366 | 7627 ft | 20 kts | 253° |
| 2026-04-20 13:29 | 8.97743 | 38.78236 | 7627 ft | 18 kts | 251° |
| 2026-04-20 13:29 | 8.97701 | 38.78197 | 7627 ft | 12 kts | 188° |
| 2026-04-20 13:29 | 8.97575 | 38.78218 | 7627 ft | 24 kts | 166° |
| 2026-04-20 13:29 | 8.97415 | 38.78260 | 7628 ft | 23 kts | 165° |
| 2026-04-20 13:30 | 8.97276 | 38.78345 | 7625 ft | 23 kts | 140° |
| 2026-04-20 13:30 | 8.97251 | 38.78431 | 7626 ft | 9 kts | 78° |
| 2026-04-20 13:30 | 8.97269 | 38.78487 | 7627 ft | 11 kts | 72° |
| 2026-04-20 13:30 | 8.97331 | 38.78697 | 7627 ft | 57 kts | 73° |
| 2026-04-20 13:31 | 8.97493 | 38.79247 | 7627 ft | 105 kts | 73° |
| 2026-04-20 13:31 | 8.97743 | 38.80102 | 7630 ft | 147 kts | 74° |
| 2026-04-20 13:31 | 8.98062 | 38.81166 | 7998 ft | 155 kts | 73° |
| 2026-04-20 13:31 | 8.98353 | 38.82153 | 8545 ft | 148 kts | 78° |
| 2026-04-20 13:32 | 8.98551 | 38.83194 | 8804 ft | 152 kts | 83° |
| 2026-04-20 13:32 | 8.98705 | 38.84258 | 9005 ft | 153 kts | 85° |
| 2026-04-20 13:32 | 8.98828 | 38.85371 | 9076 ft | 164 kts | 84° |
| 2026-04-20 13:32 | 8.98995 | 38.86551 | 9175 ft | 175 kts | 89° |
| 2026-04-20 13:33 | 8.98907 | 38.87801 | 9364 ft | 182 kts | 99° |
| 2026-04-20 13:33 | 8.98756 | 38.89124 | 9435 ft | 196 kts | 91° |
| 2026-04-20 13:33 | 8.98705 | 38.90541 | 9532 ft | 209 kts | 97° |
| 2026-04-20 13:33 | 8.98100 | 38.91912 | 9663 ft | 220 kts | 118° |
| 2026-04-20 13:34 | 8.96871 | 38.92932 | 9716 ft | 244 kts | 155° |
| 2026-04-20 13:34 | 8.95156 | 38.93172 | 9982 ft | 258 kts | 184° |
| 2026-04-20 13:34 | 8.93447 | 38.92518 | 10306 ft | 267 kts | 206° |
| 2026-04-20 13:34 | 8.91867 | 38.91538 | 10715 ft | 270 kts | 219° |
| 2026-04-20 13:35 | 8.90851 | 38.89938 | 10957 ft | 280 kts | 255° |
| 2026-04-20 13:35 | 8.90557 | 38.88005 | 11385 ft | 277 kts | 257° |
| 2026-04-20 13:35 | 8.89871 | 38.86201 | 11803 ft | 275 kts | 240° |
| 2026-04-20 13:35 | 8.88943 | 38.84490 | 12107 ft | 279 kts | 250° |
| 2026-04-20 13:36 | 8.88360 | 38.82594 | 12317 ft | 287 kts | 250° |
| 2026-04-20 13:36 | 8.87643 | 38.80672 | 12529 ft | 297 kts | 247° |
| 2026-04-20 13:36 | 8.86801 | 38.78719 | 12714 ft | 309 kts | 244° |
| 2026-04-20 13:36 | 8.85860 | 38.76727 | 12878 ft | 320 kts | 243° |
| 2026-04-20 13:37 | 8.84845 | 38.74680 | 13021 ft | 331 kts | 243° |
| 2026-04-20 13:37 | 8.83776 | 38.72577 | 13211 ft | 341 kts | 243° |
| 2026-04-20 13:37 | 8.82666 | 38.70422 | 13405 ft | 350 kts | 242° |
| 2026-04-20 13:37 | 8.81523 | 38.68214 | 13585 ft | 360 kts | 242° |
| 2026-04-20 13:38 | 8.80509 | 38.65868 | 13706 ft | 370 kts | 251° |
| 2026-04-20 13:38 | 8.79730 | 38.63358 | 13829 ft | 378 kts | 253° |
| 2026-04-20 13:38 | 8.78983 | 38.60780 | 13938 ft | 386 kts | 253° |
| 2026-04-20 13:38 | 8.78222 | 38.58146 | 14036 ft | 394 kts | 253° |
| 2026-04-20 13:39 | 8.77442 | 38.55466 | 14179 ft | 401 kts | 253° |
| 2026-04-20 13:39 | 8.76651 | 38.52754 | 14467 ft | 402 kts | 253° |
| 2026-04-20 13:39 | 8.75860 | 38.50053 | 14888 ft | 399 kts | 253° |
| 2026-04-20 13:39 | 8.75068 | 38.47352 | 15141 ft | 403 kts | 253° |
| 2026-04-20 13:40 | 8.74266 | 38.44617 | 15364 ft | 408 kts | 253° |
| 2026-04-20 13:40 | 8.73469 | 38.41903 | 15716 ft | 408 kts | 253° |
| 2026-04-20 13:40 | 8.72662 | 38.39156 | 16110 ft | 407 kts | 253° |
| 2026-04-20 13:40 | 8.71916 | 38.36376 | 16367 ft | 412 kts | 258° |
| 2026-04-20 13:41 | 8.71406 | 38.33504 | 16520 ft | 418 kts | 261° |
| 2026-04-20 13:41 | 8.70969 | 38.30608 | 16942 ft | 416 kts | 261° |
| 2026-04-20 13:41 | 8.70541 | 38.27745 | 17384 ft | 415 kts | 261° |
| 2026-04-20 13:41 | 8.70105 | 38.24844 | 17612 ft | 419 kts | 261° |
| 2026-04-20 13:42 | 8.69662 | 38.21912 | 17790 ft | 425 kts | 261° |
| 2026-04-20 13:42 | 8.68770 | 38.16037 | 18570 ft | 421 kts | 261° |
| 2026-04-20 13:42 | 8.68322 | 38.13094 | 18745 ft | 426 kts | 261° |
| 2026-04-20 13:43 | 8.67871 | 38.10117 | 18902 ft | 430 kts | 261° |
| 2026-04-20 13:43 | 8.67421 | 38.07129 | 19208 ft | 430 kts | 261° |
| 2026-04-20 13:43 | 8.66970 | 38.04143 | 19562 ft | 429 kts | 261° |
| 2026-04-20 13:43 | 8.66518 | 38.01145 | 19746 ft | 433 kts | 261° |
| 2026-04-20 13:44 | 8.66060 | 37.98115 | 19883 ft | 438 kts | 261° |
| 2026-04-20 13:44 | 8.65601 | 37.95082 | 20218 ft | 436 kts | 261° |
| 2026-04-20 13:44 | 8.65142 | 37.92047 | 20542 ft | 436 kts | 261° |
| 2026-04-20 13:44 | 8.64683 | 37.89012 | 20764 ft | 438 kts | 261° |
| 2026-04-20 13:45 | 8.64221 | 37.85962 | 20987 ft | 440 kts | 261° |
| 2026-04-20 13:45 | 8.63758 | 37.82901 | 21208 ft | 441 kts | 261° |
| 2026-04-20 13:45 | 8.63293 | 37.79831 | 21434 ft | 443 kts | 261° |
| 2026-04-20 13:45 | 8.62825 | 37.76746 | 21641 ft | 445 kts | 261° |
| 2026-04-20 13:46 | 8.62355 | 37.73651 | 21847 ft | 446 kts | 261° |
| 2026-04-20 13:46 | 8.61883 | 37.70546 | 22087 ft | 447 kts | 261° |
| 2026-04-20 13:46 | 8.61411 | 37.67439 | 22344 ft | 448 kts | 261° |
| 2026-04-20 13:46 | 8.60938 | 37.64325 | 22549 ft | 449 kts | 261° |
| 2026-04-20 13:47 | 8.60463 | 37.61200 | 22755 ft | 451 kts | 261° |
| 2026-04-20 13:47 | 8.59987 | 37.58067 | 22984 ft | 451 kts | 261° |
| 2026-04-20 13:47 | 8.59509 | 37.54927 | 23172 ft | 453 kts | 261° |
| 2026-04-20 13:47 | 8.59029 | 37.51776 | 23348 ft | 455 kts | 261° |
| 2026-04-20 13:48 | 8.58546 | 37.48612 | 23538 ft | 456 kts | 261° |
| 2026-04-20 13:48 | 8.58070 | 37.45491 | 23716 ft | 457 kts | 261° |
| 2026-04-20 13:48 | 8.57586 | 37.42316 | 23861 ft | 458 kts | 261° |
| 2026-04-20 13:48 | 8.57099 | 37.39129 | 24033 ft | 459 kts | 261° |
| 2026-04-20 13:49 | 8.56613 | 37.35945 | 24211 ft | 459 kts | 261° |
| 2026-04-20 13:49 | 8.56126 | 37.32754 | 24361 ft | 460 kts | 261° |
| 2026-04-20 13:49 | 8.55636 | 37.29552 | 24481 ft | 462 kts | 261° |
| 2026-04-20 13:49 | 8.55145 | 37.26340 | 24674 ft | 462 kts | 261° |
| 2026-04-20 13:50 | 8.54653 | 37.23129 | 24870 ft | 463 kts | 261° |
| 2026-04-20 13:50 | 8.54160 | 37.19911 | 24986 ft | 465 kts | 261° |
| 2026-04-20 13:50 | 8.53663 | 37.16671 | 25121 ft | 466 kts | 261° |
| 2026-04-20 13:50 | 8.53168 | 37.13438 | 25372 ft | 465 kts | 261° |
| 2026-04-20 13:51 | 8.52671 | 37.10204 | 25492 ft | 467 kts | 260° |
| 2026-04-20 13:51 | 8.52172 | 37.06953 | 25591 ft | 470 kts | 261° |
| 2026-04-20 13:51 | 8.51671 | 37.03694 | 25769 ft | 469 kts | 261° |
| 2026-04-20 13:51 | 8.51171 | 37.00441 | 25989 ft | 469 kts | 261° |
| 2026-04-20 13:52 | 8.50670 | 36.97179 | 26071 ft | 472 kts | 261° |
| 2026-04-20 13:52 | 8.50164 | 36.93896 | 26272 ft | 472 kts | 260° |
| 2026-04-20 13:52 | 8.49660 | 36.90622 | 26508 ft | 472 kts | 261° |
| 2026-04-20 13:52 | 8.49156 | 36.87342 | 26638 ft | 474 kts | 260° |
| 2026-04-20 13:53 | 8.48646 | 36.84037 | 26641 ft | 478 kts | 261° |
| 2026-04-20 13:53 | 8.48134 | 36.80719 | 26867 ft | 477 kts | 261° |
| 2026-04-20 13:53 | 8.47625 | 36.77416 | 27054 ft | 477 kts | 260° |
| 2026-04-20 13:53 | 8.47112 | 36.74096 | 27111 ft | 480 kts | 260° |
| 2026-04-20 13:54 | 8.46597 | 36.70764 | 27327 ft | 480 kts | 260° |
| 2026-04-20 13:54 | 8.46084 | 36.67443 | 27578 ft | 478 kts | 260° |
| 2026-04-20 13:54 | 8.45569 | 36.64113 | 27642 ft | 482 kts | 260° |
| 2026-04-20 13:54 | 8.45051 | 36.60765 | 27766 ft | 483 kts | 260° |
| 2026-04-20 13:55 | 8.44532 | 36.57415 | 27981 ft | 482 kts | 261° |
| 2026-04-20 13:55 | 8.44014 | 36.54066 | 28141 ft | 483 kts | 260° |
| 2026-04-20 13:55 | 8.42968 | 36.47325 | 28381 ft | 487 kts | 261° |
| 2026-04-20 13:56 | 8.42443 | 36.43944 | 28542 ft | 488 kts | 261° |
| 2026-04-20 13:56 | 8.41917 | 36.40553 | 28633 ft | 491 kts | 260° |
| 2026-04-20 13:56 | 8.41387 | 36.37147 | 28794 ft | 491 kts | 260° |
| 2026-04-20 13:56 | 8.40859 | 36.33750 | 29072 ft | 489 kts | 260° |
| 2026-04-20 13:57 | 8.39796 | 36.26916 | 29247 ft | 494 kts | 260° |
| 2026-04-20 13:57 | 8.39263 | 36.23496 | 29499 ft | 493 kts | 261° |
| 2026-04-20 13:57 | 8.38728 | 36.20062 | 29594 ft | 496 kts | 260° |
| 2026-04-20 13:58 | 8.37652 | 36.13164 | 29922 ft | 497 kts | 261° |
| 2026-04-20 13:58 | 8.37113 | 36.09708 | 30056 ft | 499 kts | 260° |
| 2026-04-20 13:58 | 8.36571 | 36.06236 | 30148 ft | 501 kts | 260° |
| 2026-04-20 13:59 | 8.36035 | 36.02810 | 30318 ft | 500 kts | 261° |
| 2026-04-20 13:59 | 8.35491 | 35.99330 | 30485 ft | 501 kts | 260° |
| 2026-04-20 13:59 | 8.34396 | 35.92334 | 30744 ft | 503 kts | 260° |
| 2026-04-20 14:00 | 8.33849 | 35.88844 | 30915 ft | 504 kts | 260° |
| 2026-04-20 14:00 | 8.33301 | 35.85346 | 30981 ft | 506 kts | 260° |
| 2026-04-20 14:00 | 8.32749 | 35.81826 | 31144 ft | 506 kts | 261° |
| 2026-04-20 14:00 | 8.32204 | 35.78356 | 31355 ft | 506 kts | 260° |
| 2026-04-20 14:01 | 8.31097 | 35.71312 | 31547 ft | 509 kts | 260° |
| 2026-04-20 14:01 | 8.30542 | 35.67778 | 31699 ft | 509 kts | 260° |
| 2026-04-20 14:01 | 8.29985 | 35.64236 | 31712 ft | 512 kts | 260° |
| 2026-04-20 14:02 | 8.29425 | 35.60680 | 31834 ft | 513 kts | 260° |
| 2026-04-20 14:02 | 8.28865 | 35.57126 | 32035 ft | 512 kts | 260° |
| 2026-04-20 14:02 | 8.27748 | 35.50037 | 32172 ft | 515 kts | 260° |
| 2026-04-20 14:03 | 8.27184 | 35.46461 | 32383 ft | 513 kts | 260° |
| 2026-04-20 14:03 | 8.26621 | 35.42894 | 32429 ft | 516 kts | 260° |
| 2026-04-20 14:03 | 8.25487 | 35.35720 | 32703 ft | 515 kts | 260° |
| 2026-04-20 14:04 | 8.24924 | 35.32156 | 32853 ft | 515 kts | 259° |
| 2026-04-20 14:04 | 8.24356 | 35.28563 | 32938 ft | 516 kts | 260° |
| 2026-04-20 14:04 | 8.23791 | 35.24997 | 33197 ft | 513 kts | 260° |
| 2026-04-20 14:04 | 8.23238 | 35.21505 | 33619 ft | 506 kts | 260° |
| 2026-04-20 14:05 | 8.22688 | 35.18032 | 34105 ft | 498 kts | 260° |
| 2026-04-20 14:05 | 8.22140 | 35.14577 | 34271 ft | 498 kts | 260° |
| 2026-04-20 14:05 | 8.21038 | 35.07639 | 34471 ft | 500 kts | 260° |
| 2026-04-20 14:06 | 8.20487 | 35.04167 | 34595 ft | 500 kts | 260° |
| 2026-04-20 14:06 | 8.19936 | 35.00700 | 34763 ft | 500 kts | 260° |
| 2026-04-20 14:06 | 8.19386 | 34.97242 | 34960 ft | 498 kts | 260° |
| 2026-04-20 14:06 | 8.18839 | 34.93803 | 35180 ft | 496 kts | 260° |
| 2026-04-20 14:07 | 8.18291 | 34.90366 | 35319 ft | 496 kts | 260° |
| 2026-04-20 14:07 | 8.17743 | 34.86926 | 35477 ft | 495 kts | 260° |
| 2026-04-20 14:07 | 8.17195 | 34.83488 | 35620 ft | 495 kts | 260° |
| 2026-04-20 14:07 | 8.16832 | 34.81210 | 35701 ft | 496 kts | 260° |
| 2026-04-20 14:08 | 8.16106 | 34.76661 | 35905 ft | 495 kts | 260° |
| 2026-04-20 14:08 | 8.15558 | 34.73232 | 36061 ft | 494 kts | 260° |
| 2026-04-20 14:08 | 8.15010 | 34.69801 | 36164 ft | 495 kts | 261° |
| 2026-04-20 14:08 | 8.14639 | 34.67480 | 36248 ft | 495 kts | 261° |
| 2026-04-20 14:09 | 8.14097 | 34.64087 | 36412 ft | 495 kts | 261° |
| 2026-04-20 14:09 | 8.13547 | 34.60653 | 36550 ft | 495 kts | 261° |
| 2026-04-20 14:09 | 8.13069 | 34.57220 | 36681 ft | 495 kts | 265° |
| 2026-04-20 14:09 | 8.12990 | 34.53746 | 36817 ft | 494 kts | 272° |
| 2026-04-20 14:10 | 8.13139 | 34.50282 | 36939 ft | 494 kts | 273° |
| 2026-04-20 14:10 | 8.13366 | 34.46823 | 37082 ft | 494 kts | 274° |
| 2026-04-20 14:10 | 8.13626 | 34.43368 | 37234 ft | 493 kts | 275° |
| 2026-04-20 14:10 | 8.13892 | 34.39914 | 37370 ft | 493 kts | 275° |
| 2026-04-20 14:11 | 8.14153 | 34.36461 | 37487 ft | 493 kts | 274° |
| 2026-04-20 14:11 | 8.14401 | 34.33060 | 37626 ft | 492 kts | 274° |
| 2026-04-20 14:11 | 8.14644 | 34.29610 | 37756 ft | 492 kts | 274° |
| 2026-04-20 14:11 | 8.14883 | 34.26144 | 37798 ft | 494 kts | 274° |
| 2026-04-20 14:12 | 8.15354 | 34.19197 | 37784 ft | 496 kts | 274° |
| 2026-04-20 14:12 | 8.15823 | 34.12248 | 37785 ft | 496 kts | 274° |
| 2026-04-20 14:13 | 8.16288 | 34.05344 | 37780 ft | 495 kts | 274° |
| 2026-04-20 14:13 | 8.16757 | 33.98392 | 37782 ft | 495 kts | 274° |
| 2026-04-20 14:14 | 8.17224 | 33.91444 | 37781 ft | 495 kts | 274° |
| 2026-04-20 14:14 | 8.17685 | 33.84574 | 37794 ft | 494 kts | 274° |
| 2026-04-20 14:15 | 8.18144 | 33.77700 | 37787 ft | 494 kts | 274° |
| 2026-04-20 14:15 | 8.18606 | 33.70783 | 37771 ft | 494 kts | 274° |
| 2026-04-20 14:16 | 8.19066 | 33.63866 | 37782 ft | 494 kts | 274° |
| 2026-04-20 14:16 | 8.19525 | 33.56951 | 37765 ft | 494 kts | 274° |
| 2026-04-20 14:17 | 8.19982 | 33.50044 | 37775 ft | 493 kts | 274° |
| 2026-04-20 14:17 | 8.20439 | 33.43131 | 37780 ft | 494 kts | 274° |
| 2026-04-20 14:18 | 8.20895 | 33.36214 | 37780 ft | 494 kts | 274° |
| 2026-04-20 14:18 | 8.21348 | 33.29301 | 37773 ft | 494 kts | 274° |
| 2026-04-20 14:19 | 8.21801 | 33.22390 | 37760 ft | 493 kts | 274° |
| 2026-04-20 14:19 | 8.22253 | 33.15474 | 37769 ft | 494 kts | 274° |
| 2026-04-20 14:20 | 8.22703 | 33.08570 | 37755 ft | 492 kts | 274° |
| 2026-04-20 14:20 | 8.23151 | 33.01675 | 37754 ft | 493 kts | 274° |
| 2026-04-20 14:21 | 8.23599 | 32.94774 | 37753 ft | 492 kts | 274° |
| 2026-04-20 14:21 | 8.24045 | 32.87879 | 37759 ft | 493 kts | 274° |
| 2026-04-20 14:22 | 8.24490 | 32.80979 | 37751 ft | 492 kts | 273° |
| 2026-04-20 14:22 | 8.24933 | 32.74079 | 37761 ft | 492 kts | 273° |
| 2026-04-20 14:23 | 8.25373 | 32.67220 | 37747 ft | 492 kts | 273° |
| 2026-04-20 14:23 | 8.25815 | 32.60321 | 37761 ft | 492 kts | 273° |
| 2026-04-20 14:24 | 8.26254 | 32.53424 | 37761 ft | 492 kts | 273° |
| 2026-04-20 14:24 | 8.26693 | 32.46523 | 37760 ft | 493 kts | 273° |
| 2026-04-20 14:25 | 8.27131 | 32.39622 | 37758 ft | 492 kts | 273° |
| 2026-04-20 14:25 | 8.27568 | 32.32725 | 37753 ft | 492 kts | 273° |
| 2026-04-20 14:26 | 8.28003 | 32.25828 | 37755 ft | 492 kts | 273° |
| 2026-04-20 14:26 | 8.28436 | 32.18933 | 37756 ft | 492 kts | 273° |
| 2026-04-20 14:27 | 8.28869 | 32.12036 | 37756 ft | 492 kts | 273° |
| 2026-04-20 14:27 | 8.29301 | 32.05144 | 37753 ft | 492 kts | 273° |
| 2026-04-20 14:28 | 8.29731 | 31.98244 | 37753 ft | 493 kts | 273° |
| 2026-04-20 14:28 | 8.30161 | 31.91344 | 37755 ft | 493 kts | 273° |
| 2026-04-20 14:29 | 8.30589 | 31.84438 | 37753 ft | 493 kts | 273° |
| 2026-04-20 14:29 | 8.31017 | 31.77534 | 37755 ft | 492 kts | 273° |
| 2026-04-20 14:30 | 8.31442 | 31.70642 | 37760 ft | 491 kts | 273° |
| 2026-04-20 14:30 | 8.31863 | 31.63793 | 37765 ft | 491 kts | 273° |
| 2026-04-20 14:31 | 8.32285 | 31.56911 | 37756 ft | 491 kts | 273° |
| 2026-04-20 14:31 | 8.32707 | 31.50030 | 37764 ft | 491 kts | 273° |
| 2026-04-20 14:32 | 8.33127 | 31.43151 | 37761 ft | 491 kts | 273° |
| 2026-04-20 14:32 | 8.33545 | 31.36271 | 37756 ft | 490 kts | 273° |
| 2026-04-20 14:33 | 8.33962 | 31.29400 | 37759 ft | 490 kts | 273° |
| 2026-04-20 14:33 | 8.34378 | 31.22526 | 37757 ft | 491 kts | 272° |
| 2026-04-20 14:34 | 8.34794 | 31.15634 | 37761 ft | 492 kts | 273° |
| 2026-04-20 14:34 | 8.35206 | 31.08786 | 37761 ft | 492 kts | 272° |
| 2026-04-20 14:35 | 8.35620 | 31.01882 | 37765 ft | 492 kts | 273° |
| 2026-04-20 14:35 | 8.36032 | 30.94986 | 37750 ft | 492 kts | 272° |
| 2026-04-20 14:36 | 8.36445 | 30.88067 | 37764 ft | 495 kts | 272° |
| 2026-04-20 14:36 | 8.36858 | 30.81120 | 37763 ft | 496 kts | 273° |
| 2026-04-20 14:37 | 8.37270 | 30.74172 | 37760 ft | 496 kts | 272° |
| 2026-04-20 14:37 | 8.37680 | 30.67223 | 37753 ft | 496 kts | 272° |
| 2026-04-20 14:38 | 8.38085 | 30.60361 | 37757 ft | 496 kts | 272° |
| 2026-04-20 14:38 | 8.38293 | 30.56822 | 37746 ft | 484 kts | 270° |
| 2026-04-20 14:38 | 8.38461 | 30.53425 | 37761 ft | 486 kts | 270° |
| 2026-04-20 14:39 | 8.38760 | 30.46570 | 37755 ft | 491 kts | 270° |
| 2026-04-20 14:39 | 8.39112 | 30.39649 | 37752 ft | 496 kts | 271° |
| 2026-04-20 14:40 | 8.39508 | 30.32684 | 37757 ft | 497 kts | 271° |
| 2026-04-20 14:40 | 8.39917 | 30.25720 | 37753 ft | 497 kts | 271° |
| 2026-04-20 14:41 | 8.40323 | 30.18758 | 37747 ft | 497 kts | 270° |
| 2026-04-20 14:41 | 8.40726 | 30.11793 | 37745 ft | 497 kts | 270° |
| 2026-04-20 14:42 | 8.41125 | 30.04830 | 37747 ft | 497 kts | 271° |
| 2026-04-20 14:42 | 8.41375 | 30.00487 | 37743 ft | 497 kts | 270° |
| 2026-04-20 14:43 | 8.41500 | 29.98301 | 37749 ft | 496 kts | 270° |
| 2026-04-20 14:44 | 8.41898 | 29.91327 | 37742 ft | 496 kts | 270° |
| 2026-04-20 14:44 | 8.42295 | 29.84372 | 37746 ft | 496 kts | 270° |
| 2026-04-20 14:45 | 8.42691 | 29.77403 | 37742 ft | 498 kts | 271° |
| 2026-04-20 14:45 | 8.43086 | 29.70416 | 37742 ft | 499 kts | 271° |
| 2026-04-20 14:46 | 8.43481 | 29.63417 | 37740 ft | 499 kts | 271° |
| 2026-04-20 14:46 | 8.43876 | 29.56423 | 37745 ft | 499 kts | 270° |
| 2026-04-20 14:47 | 8.44268 | 29.49422 | 37743 ft | 500 kts | 271° |
| 2026-04-20 14:48 | 8.44857 | 29.38897 | 37744 ft | 501 kts | 270° |
| 2026-04-20 14:48 | 8.45245 | 29.31925 | 37747 ft | 500 kts | 270° |
| 2026-04-20 14:49 | 8.45635 | 29.24900 | 37743 ft | 501 kts | 270° |
| 2026-04-20 14:49 | 8.46022 | 29.17896 | 37744 ft | 498 kts | 270° |
| 2026-04-20 14:50 | 8.46408 | 29.10914 | 37745 ft | 497 kts | 270° |
| 2026-04-20 14:50 | 8.46790 | 29.03942 | 37740 ft | 497 kts | 271° |
| 2026-04-20 14:51 | 8.47172 | 28.96975 | 37745 ft | 497 kts | 270° |
| 2026-04-20 14:51 | 8.47552 | 28.89989 | 37747 ft | 497 kts | 270° |
| 2026-04-20 14:52 | 8.47932 | 28.83029 | 37749 ft | 496 kts | 270° |
| 2026-04-20 14:52 | 8.48309 | 28.76077 | 37745 ft | 496 kts | 271° |
| 2026-04-20 14:53 | 8.48685 | 28.69112 | 37743 ft | 496 kts | 270° |
| 2026-04-20 14:53 | 8.49059 | 28.62153 | 37738 ft | 497 kts | 271° |
| 2026-04-20 14:54 | 8.49432 | 28.55218 | 37749 ft | 498 kts | 271° |
| 2026-04-20 14:54 | 8.49807 | 28.48231 | 37740 ft | 498 kts | 271° |
| 2026-04-20 14:55 | 8.50180 | 28.41244 | 37735 ft | 498 kts | 271° |
| 2026-04-20 14:55 | 8.50551 | 28.34255 | 37729 ft | 498 kts | 271° |
| 2026-04-20 14:56 | 8.50921 | 28.27285 | 37730 ft | 497 kts | 270° |
| 2026-04-20 14:56 | 8.51288 | 28.20319 | 37731 ft | 496 kts | 271° |
| 2026-04-20 14:57 | 8.51654 | 28.13360 | 37729 ft | 496 kts | 270° |
| 2026-04-20 14:57 | 8.51958 | 28.07568 | 37729 ft | 496 kts | 270° |
| 2026-04-20 14:58 | 8.52321 | 28.00627 | 37718 ft | 492 kts | 270° |
| 2026-04-20 14:58 | 8.52681 | 27.93731 | 37719 ft | 491 kts | 270° |
| 2026-04-20 14:59 | 8.53039 | 27.86845 | 37724 ft | 491 kts | 270° |
| 2026-04-20 14:59 | 8.53395 | 27.79963 | 37717 ft | 491 kts | 270° |
| 2026-04-20 15:00 | 8.53750 | 27.73075 | 37721 ft | 491 kts | 270° |
| 2026-04-20 15:00 | 8.54104 | 27.66184 | 37719 ft | 491 kts | 270° |
| 2026-04-20 15:01 | 8.54457 | 27.59299 | 37724 ft | 491 kts | 270° |
| 2026-04-20 15:01 | 8.54809 | 27.52408 | 37717 ft | 491 kts | 270° |
| 2026-04-20 15:02 | 8.55157 | 27.45566 | 37719 ft | 490 kts | 271° |
| 2026-04-20 15:02 | 8.55508 | 27.38641 | 37720 ft | 491 kts | 271° |
| 2026-04-20 15:03 | 8.55856 | 27.31753 | 37721 ft | 490 kts | 270° |
| 2026-04-20 15:03 | 8.56203 | 27.24870 | 37719 ft | 491 kts | 271° |
| 2026-04-20 15:04 | 8.56546 | 27.18027 | 37730 ft | 490 kts | 271° |
| 2026-04-20 15:04 | 8.56891 | 27.11137 | 37727 ft | 491 kts | 270° |
| 2026-04-20 15:05 | 8.57234 | 27.04242 | 37731 ft | 492 kts | 270° |
| 2026-04-20 15:05 | 8.57576 | 26.97339 | 37728 ft | 492 kts | 270° |
| 2026-04-20 15:06 | 8.57918 | 26.90439 | 37733 ft | 492 kts | 270° |
| 2026-04-20 15:06 | 8.58258 | 26.83533 | 37735 ft | 492 kts | 270° |
| 2026-04-20 15:07 | 8.58597 | 26.76630 | 37731 ft | 492 kts | 270° |
| 2026-04-20 15:07 | 8.58934 | 26.69727 | 37734 ft | 492 kts | 270° |
| 2026-04-20 15:08 | 8.59271 | 26.62816 | 37734 ft | 492 kts | 270° |
| 2026-04-20 15:08 | 8.59606 | 26.55909 | 37733 ft | 492 kts | 270° |
| 2026-04-20 15:09 | 8.59941 | 26.48998 | 37734 ft | 493 kts | 270° |
| 2026-04-20 15:09 | 8.60274 | 26.42078 | 37731 ft | 493 kts | 270° |
| 2026-04-20 15:10 | 8.60604 | 26.35204 | 37727 ft | 493 kts | 270° |
| 2026-04-20 15:10 | 8.60935 | 26.28277 | 37727 ft | 493 kts | 270° |
| 2026-04-20 15:11 | 8.61265 | 26.21359 | 37734 ft | 493 kts | 269° |
| 2026-04-20 15:11 | 8.61594 | 26.14449 | 37732 ft | 492 kts | 269° |
| 2026-04-20 15:12 | 8.61920 | 26.07542 | 37735 ft | 492 kts | 269° |
| 2026-04-20 15:12 | 8.62245 | 26.00632 | 37735 ft | 492 kts | 269° |
| 2026-04-20 15:13 | 8.62570 | 25.93723 | 37729 ft | 492 kts | 269° |
| 2026-04-20 15:13 | 8.62894 | 25.86795 | 37735 ft | 495 kts | 269° |
| 2026-04-20 15:14 | 8.63218 | 25.79835 | 37734 ft | 495 kts | 269° |
| 2026-04-20 15:14 | 8.63541 | 25.72885 | 37734 ft | 495 kts | 269° |
| 2026-04-20 15:15 | 8.63862 | 25.65931 | 37733 ft | 495 kts | 269° |
| 2026-04-20 15:15 | 8.64182 | 25.58986 | 37739 ft | 494 kts | 269° |
| 2026-04-20 15:16 | 8.64497 | 25.52108 | 37736 ft | 493 kts | 269° |
| 2026-04-20 15:16 | 8.64813 | 25.45197 | 37744 ft | 492 kts | 269° |
| 2026-04-20 15:17 | 8.65127 | 25.38293 | 37751 ft | 492 kts | 269° |
| 2026-04-20 15:17 | 8.65440 | 25.31372 | 37749 ft | 492 kts | 270° |
| 2026-04-20 15:18 | 8.65752 | 25.24471 | 37759 ft | 491 kts | 270° |
| 2026-04-20 15:18 | 8.66063 | 25.17582 | 37761 ft | 490 kts | 270° |
| 2026-04-20 15:19 | 8.66371 | 25.10695 | 37762 ft | 491 kts | 270° |
| 2026-04-20 15:19 | 8.66678 | 25.03811 | 37768 ft | 491 kts | 270° |
| 2026-04-20 15:20 | 8.66985 | 24.96911 | 37769 ft | 493 kts | 269° |
| 2026-04-20 15:20 | 8.67292 | 24.89963 | 37774 ft | 496 kts | 269° |
| 2026-04-20 15:21 | 8.67599 | 24.83000 | 37770 ft | 496 kts | 269° |
| 2026-04-20 15:21 | 8.67905 | 24.76038 | 37782 ft | 496 kts | 269° |
| 2026-04-20 15:22 | 8.68209 | 24.69078 | 37780 ft | 496 kts | 269° |
| 2026-04-20 15:22 | 8.68511 | 24.62113 | 37783 ft | 496 kts | 269° |
| 2026-04-20 15:23 | 8.68813 | 24.55148 | 37784 ft | 496 kts | 269° |
| 2026-04-20 15:23 | 8.69114 | 24.48185 | 37789 ft | 496 kts | 269° |
| 2026-04-20 15:24 | 8.69414 | 24.41219 | 37795 ft | 496 kts | 269° |
| 2026-04-20 15:24 | 8.69710 | 24.34308 | 37786 ft | 494 kts | 269° |
| 2026-04-20 15:25 | 8.70005 | 24.27387 | 37788 ft | 492 kts | 269° |
| 2026-04-20 15:25 | 8.70298 | 24.20479 | 37781 ft | 492 kts | 269° |
| 2026-04-20 15:26 | 8.70589 | 24.13571 | 37789 ft | 492 kts | 269° |
| 2026-04-20 15:26 | 8.70880 | 24.06664 | 37794 ft | 492 kts | 269° |
| 2026-04-20 15:27 | 8.71170 | 23.99729 | 37788 ft | 496 kts | 269° |
| 2026-04-20 15:27 | 8.71461 | 23.92754 | 37787 ft | 497 kts | 269° |
| 2026-04-20 15:28 | 8.71750 | 23.85781 | 37784 ft | 497 kts | 269° |
| 2026-04-20 15:28 | 8.72039 | 23.78806 | 37786 ft | 497 kts | 269° |
| 2026-04-20 15:29 | 8.72327 | 23.71832 | 37784 ft | 496 kts | 269° |
| 2026-04-20 15:29 | 8.72612 | 23.64867 | 37786 ft | 496 kts | 269° |
| 2026-04-20 15:30 | 8.72781 | 23.58981 | 37787 ft | 493 kts | 264° |
| 2026-04-20 15:30 | 8.72432 | 23.55702 | 37824 ft | 480 kts | 249° |
| 2026-04-20 15:30 | 8.71443 | 23.52396 | 37696 ft | 479 kts | 239° |
| 2026-04-20 15:31 | 8.68057 | 23.46703 | 37780 ft | 471 kts | 222° |
| 2026-04-20 15:31 | 8.63764 | 23.41721 | 37786 ft | 469 kts | 220° |
| 2026-04-20 15:32 | 8.60016 | 23.37496 | 37788 ft | 464 kts | 218° |
| 2026-04-20 15:32 | 8.55710 | 23.32725 | 37786 ft | 460 kts | 219° |
| 2026-04-20 15:33 | 8.51454 | 23.27883 | 37772 ft | 457 kts | 219° |
| 2026-04-20 15:33 | 8.47304 | 23.23056 | 37794 ft | 454 kts | 220° |
| 2026-04-20 15:34 | 8.43187 | 23.18243 | 37788 ft | 451 kts | 220° |
| 2026-04-20 15:34 | 8.39101 | 23.13473 | 37787 ft | 447 kts | 220° |
| 2026-04-20 15:35 | 8.35071 | 23.08772 | 37790 ft | 444 kts | 219° |
| 2026-04-20 15:35 | 8.31034 | 23.04069 | 37788 ft | 441 kts | 220° |
| 2026-04-20 15:36 | 8.27029 | 22.99403 | 37790 ft | 438 kts | 220° |
| 2026-04-20 15:36 | 8.23155 | 22.94668 | 37799 ft | 440 kts | 234° |
| 2026-04-20 15:37 | 8.19592 | 22.89592 | 37794 ft | 446 kts | 232° |
| 2026-04-20 15:37 | 8.15677 | 22.84670 | 37797 ft | 453 kts | 228° |
| 2026-04-20 15:38 | 8.11511 | 22.79823 | 37789 ft | 461 kts | 227° |
| 2026-04-20 15:38 | 8.07240 | 22.74929 | 37787 ft | 468 kts | 227° |
| 2026-04-20 15:39 | 8.02912 | 22.69948 | 37787 ft | 476 kts | 227° |
| 2026-04-20 15:39 | 7.98522 | 22.64873 | 37782 ft | 483 kts | 227° |
| 2026-04-20 15:40 | 7.94104 | 22.59762 | 37777 ft | 489 kts | 227° |
| 2026-04-20 15:40 | 7.89626 | 22.54584 | 37776 ft | 489 kts | 228° |
| 2026-04-20 15:41 | 7.85140 | 22.49398 | 37769 ft | 489 kts | 228° |
| 2026-04-20 15:41 | 7.80692 | 22.44260 | 37773 ft | 488 kts | 227° |
| 2026-04-20 15:42 | 7.76235 | 22.39112 | 37770 ft | 487 kts | 227° |
| 2026-04-20 15:42 | 7.71791 | 22.33982 | 37761 ft | 487 kts | 228° |
| 2026-04-20 15:43 | 7.67300 | 22.28799 | 37760 ft | 488 kts | 228° |
| 2026-04-20 15:43 | 7.62826 | 22.23638 | 37761 ft | 489 kts | 228° |
| 2026-04-20 15:44 | 7.58354 | 22.18481 | 37753 ft | 489 kts | 228° |
| 2026-04-20 15:44 | 7.53875 | 22.13317 | 37754 ft | 489 kts | 228° |
| 2026-04-20 15:45 | 7.49399 | 22.08160 | 37752 ft | 489 kts | 228° |
| 2026-04-20 15:45 | 7.45680 | 22.03875 | 37751 ft | 489 kts | 228° |
| 2026-04-20 15:46 | 7.41202 | 21.98717 | 37750 ft | 489 kts | 227° |
| 2026-04-20 15:46 | 7.36000 | 21.92727 | 37746 ft | 488 kts | 227° |
| 2026-04-20 15:47 | 7.32253 | 21.88416 | 37744 ft | 488 kts | 227° |
| 2026-04-20 15:47 | 7.27777 | 21.83267 | 37745 ft | 488 kts | 227° |
| 2026-04-20 15:48 | 7.23300 | 21.78119 | 37744 ft | 488 kts | 228° |
| 2026-04-20 15:48 | 7.18818 | 21.72965 | 37743 ft | 489 kts | 228° |
| 2026-04-20 15:49 | 7.14334 | 21.67810 | 37741 ft | 489 kts | 228° |
| 2026-04-20 15:49 | 7.10007 | 21.62836 | 37737 ft | 489 kts | 228° |
| 2026-04-20 15:50 | 7.05523 | 21.57686 | 37739 ft | 489 kts | 227° |
| 2026-04-20 15:50 | 7.01005 | 21.52497 | 37738 ft | 490 kts | 227° |
| 2026-04-20 15:51 | 6.96531 | 21.47359 | 37742 ft | 490 kts | 227° |
| 2026-04-20 15:51 | 6.92035 | 21.42200 | 37741 ft | 490 kts | 227° |
| 2026-04-20 15:52 | 6.87544 | 21.37047 | 37736 ft | 490 kts | 227° |
| 2026-04-20 15:52 | 6.83048 | 21.31891 | 37736 ft | 490 kts | 227° |
| 2026-04-20 15:53 | 6.76305 | 21.24160 | 37737 ft | 490 kts | 227° |
| 2026-04-20 15:53 | 6.71810 | 21.19008 | 37736 ft | 490 kts | 227° |
| 2026-04-20 15:54 | 6.67312 | 21.13854 | 37739 ft | 490 kts | 227° |
| 2026-04-20 15:54 | 6.62824 | 21.08713 | 37737 ft | 488 kts | 227° |
| 2026-04-20 15:55 | 6.58348 | 21.03588 | 37738 ft | 488 kts | 228° |
| 2026-04-20 15:55 | 6.53873 | 20.98469 | 37735 ft | 487 kts | 227° |
| 2026-04-20 15:56 | 6.49383 | 20.93333 | 37735 ft | 487 kts | 227° |
| 2026-04-20 15:56 | 6.44941 | 20.88248 | 37734 ft | 487 kts | 227° |
| 2026-04-20 15:57 | 6.40462 | 20.83124 | 37731 ft | 487 kts | 227° |
| 2026-04-20 15:57 | 6.35972 | 20.77990 | 37737 ft | 491 kts | 227° |
| 2026-04-20 15:58 | 6.31454 | 20.72829 | 37730 ft | 492 kts | 227° |
| 2026-04-20 15:58 | 6.26937 | 20.67667 | 37729 ft | 492 kts | 227° |
| 2026-04-20 15:59 | 6.22416 | 20.62504 | 37732 ft | 492 kts | 227° |
| 2026-04-20 15:59 | 6.17896 | 20.57341 | 37728 ft | 492 kts | 227° |
| 2026-04-20 16:00 | 6.13374 | 20.52179 | 37731 ft | 492 kts | 227° |
| 2026-04-20 16:00 | 6.08853 | 20.47018 | 37729 ft | 492 kts | 226° |
| 2026-04-20 16:01 | 6.04327 | 20.41854 | 37727 ft | 494 kts | 226° |
| 2026-04-20 16:01 | 5.99774 | 20.36664 | 37726 ft | 495 kts | 226° |
| 2026-04-20 16:02 | 5.95222 | 20.31463 | 37737 ft | 496 kts | 226° |
| 2026-04-20 16:02 | 5.90669 | 20.26260 | 37736 ft | 495 kts | 226° |
| 2026-04-20 16:03 | 5.86117 | 20.21062 | 37733 ft | 495 kts | 226° |
| 2026-04-20 16:03 | 5.81577 | 20.15916 | 37748 ft | 490 kts | 224° |
| 2026-04-20 16:04 | 5.76993 | 20.10848 | 37744 ft | 495 kts | 224° |
| 2026-04-20 16:04 | 5.72408 | 20.05707 | 37749 ft | 493 kts | 225° |
| 2026-04-20 16:05 | 5.67853 | 20.00529 | 37751 ft | 496 kts | 226° |
| 2026-04-20 16:05 | 5.63288 | 19.95319 | 37753 ft | 497 kts | 226° |
| 2026-04-20 16:06 | 5.58718 | 19.90105 | 37752 ft | 497 kts | 225° |
| 2026-04-20 16:06 | 5.54143 | 19.84890 | 37750 ft | 497 kts | 225° |
| 2026-04-20 16:07 | 5.49563 | 19.79674 | 37743 ft | 497 kts | 225° |
| 2026-04-20 16:07 | 5.44980 | 19.74455 | 37749 ft | 500 kts | 225° |
| 2026-04-20 16:08 | 5.40380 | 19.69218 | 37744 ft | 500 kts | 225° |
| 2026-04-20 16:08 | 5.35775 | 19.63979 | 37741 ft | 501 kts | 226° |
| 2026-04-20 16:09 | 5.31161 | 19.58728 | 37741 ft | 501 kts | 226° |
| 2026-04-20 16:09 | 5.26548 | 19.53479 | 37741 ft | 502 kts | 226° |
| 2026-04-20 16:10 | 5.21933 | 19.48230 | 37740 ft | 502 kts | 226° |
| 2026-04-20 16:10 | 5.17347 | 19.43015 | 37741 ft | 500 kts | 226° |
| 2026-04-20 16:11 | 5.12742 | 19.37779 | 37741 ft | 499 kts | 226° |
| 2026-04-20 16:11 | 5.08154 | 19.32565 | 37741 ft | 499 kts | 226° |
| 2026-04-20 16:12 | 5.03561 | 19.27346 | 37744 ft | 499 kts | 226° |
| 2026-04-20 16:12 | 4.98969 | 19.22129 | 37743 ft | 499 kts | 225° |
| 2026-04-20 16:13 | 4.94372 | 19.16909 | 37746 ft | 499 kts | 225° |
| 2026-04-20 16:13 | 4.89833 | 19.11635 | 37753 ft | 499 kts | 229° |
| 2026-04-20 16:14 | 4.85301 | 19.06354 | 37754 ft | 500 kts | 228° |
| 2026-04-20 16:14 | 4.80742 | 19.01139 | 37754 ft | 500 kts | 227° |
| 2026-04-20 16:15 | 4.76143 | 18.95920 | 37754 ft | 499 kts | 227° |
| 2026-04-20 16:15 | 4.71537 | 18.90702 | 37764 ft | 499 kts | 227° |
| 2026-04-20 16:16 | 4.66937 | 18.85486 | 37761 ft | 499 kts | 226° |
| 2026-04-20 16:16 | 4.62348 | 18.80283 | 37759 ft | 498 kts | 226° |
| 2026-04-20 16:17 | 4.57761 | 18.75084 | 37766 ft | 498 kts | 227° |
| 2026-04-20 16:17 | 4.53164 | 18.69873 | 37810 ft | 499 kts | 227° |
| 2026-04-20 16:18 | 4.48561 | 18.64657 | 37834 ft | 500 kts | 227° |
| 2026-04-20 16:18 | 4.43957 | 18.59441 | 37856 ft | 500 kts | 227° |
| 2026-04-20 16:19 | 4.39367 | 18.54210 | 37856 ft | 500 kts | 229° |
| 2026-04-20 16:19 | 4.35552 | 18.48427 | 37858 ft | 499 kts | 238° |
| 2026-04-20 16:20 | 4.32094 | 18.42466 | 37858 ft | 497 kts | 237° |
| 2026-04-20 16:20 | 4.28635 | 18.36404 | 37818 ft | 504 kts | 237° |
| 2026-04-20 16:21 | 4.25203 | 18.30284 | 37791 ft | 504 kts | 237° |
| 2026-04-20 16:21 | 4.21788 | 18.24157 | 37758 ft | 503 kts | 237° |
| 2026-04-20 16:22 | 4.18372 | 18.18032 | 37757 ft | 503 kts | 237° |
| 2026-04-20 16:22 | 4.14955 | 18.11910 | 37759 ft | 503 kts | 237° |
| 2026-04-20 16:23 | 4.11534 | 18.05788 | 37754 ft | 503 kts | 237° |
| 2026-04-20 16:23 | 4.08116 | 17.99671 | 37762 ft | 503 kts | 237° |
| 2026-04-20 16:24 | 4.04687 | 17.93536 | 37758 ft | 503 kts | 237° |
| 2026-04-20 16:24 | 4.01280 | 17.87442 | 37761 ft | 503 kts | 237° |
| 2026-04-20 16:25 | 3.97858 | 17.81323 | 37760 ft | 503 kts | 238° |
| 2026-04-20 16:25 | 3.94443 | 17.75215 | 37760 ft | 502 kts | 238° |
| 2026-04-20 16:26 | 3.91026 | 17.69108 | 37759 ft | 503 kts | 237° |
| 2026-04-20 16:26 | 3.87597 | 17.62980 | 37759 ft | 504 kts | 237° |
| 2026-04-20 16:27 | 3.84190 | 17.56892 | 37758 ft | 504 kts | 237° |
| 2026-04-20 16:27 | 3.80765 | 17.50772 | 37758 ft | 504 kts | 237° |
| 2026-04-20 16:28 | 3.77340 | 17.44656 | 37754 ft | 504 kts | 237° |
| 2026-04-20 16:28 | 3.73912 | 17.38534 | 37751 ft | 504 kts | 237° |
| 2026-04-20 16:29 | 3.70485 | 17.32416 | 37756 ft | 504 kts | 237° |
| 2026-04-20 16:29 | 3.67060 | 17.26293 | 37755 ft | 504 kts | 237° |
| 2026-04-20 16:30 | 3.63643 | 17.20169 | 37759 ft | 504 kts | 237° |
| 2026-04-20 16:30 | 3.60219 | 17.14036 | 37755 ft | 505 kts | 237° |
| 2026-04-20 16:31 | 3.56789 | 17.07897 | 37751 ft | 506 kts | 237° |
| 2026-04-20 16:31 | 3.53342 | 17.01784 | 37751 ft | 501 kts | 234° |
| 2026-04-20 16:32 | 3.49808 | 16.95739 | 37754 ft | 505 kts | 234° |
| 2026-04-20 16:32 | 3.46887 | 16.90656 | 37755 ft | 507 kts | 235° |
| 2026-04-20 16:33 | 3.43426 | 16.84511 | 37756 ft | 507 kts | 236° |
| 2026-04-20 16:33 | 3.39987 | 16.78355 | 37756 ft | 506 kts | 236° |
| 2026-04-20 16:34 | 3.36553 | 16.72204 | 37752 ft | 506 kts | 236° |
| 2026-04-20 16:34 | 3.33115 | 16.66054 | 37752 ft | 506 kts | 236° |
| 2026-04-20 16:35 | 3.29679 | 16.59913 | 37750 ft | 506 kts | 236° |
| 2026-04-20 16:35 | 3.26240 | 16.53768 | 37749 ft | 506 kts | 236° |
| 2026-04-20 16:36 | 3.22825 | 16.47667 | 37748 ft | 506 kts | 236° |
| 2026-04-20 16:36 | 3.19397 | 16.41522 | 37747 ft | 506 kts | 240° |
| 2026-04-20 16:37 | 3.16158 | 16.35273 | 37746 ft | 506 kts | 240° |
| 2026-04-20 16:37 | 3.12874 | 16.29065 | 37741 ft | 504 kts | 239° |
| 2026-04-20 16:38 | 3.09493 | 16.22934 | 37745 ft | 503 kts | 239° |
| 2026-04-20 16:38 | 3.06067 | 16.16828 | 37743 ft | 503 kts | 238° |
| 2026-04-20 16:39 | 3.02640 | 16.10730 | 37741 ft | 503 kts | 238° |
| 2026-04-20 16:39 | 2.99211 | 16.04619 | 37742 ft | 503 kts | 238° |
| 2026-04-20 16:40 | 2.95791 | 15.98517 | 37740 ft | 503 kts | 238° |
| 2026-04-20 16:40 | 2.92379 | 15.92427 | 37744 ft | 501 kts | 238° |
| 2026-04-20 16:41 | 2.88966 | 15.86341 | 37744 ft | 502 kts | 238° |
| 2026-04-20 16:41 | 2.85552 | 15.80251 | 37743 ft | 502 kts | 238° |
| 2026-04-20 16:42 | 2.82134 | 15.74157 | 37743 ft | 502 kts | 238° |
| 2026-04-20 16:42 | 2.79289 | 15.67762 | 37744 ft | 504 kts | 246° |
| 2026-04-20 16:43 | 2.76830 | 15.61181 | 37747 ft | 505 kts | 248° |
| 2026-04-20 16:43 | 2.74436 | 15.54586 | 37748 ft | 504 kts | 248° |
| 2026-04-20 16:44 | 2.72040 | 15.47994 | 37741 ft | 504 kts | 248° |
| 2026-04-20 16:44 | 2.69629 | 15.41400 | 37744 ft | 504 kts | 247° |
| 2026-04-20 16:45 | 2.67216 | 15.34814 | 37739 ft | 504 kts | 247° |
| 2026-04-20 16:45 | 2.64817 | 15.28270 | 37742 ft | 504 kts | 247° |
| 2026-04-20 16:46 | 2.62405 | 15.21691 | 37741 ft | 504 kts | 247° |
| 2026-04-20 16:46 | 2.59993 | 15.15111 | 37743 ft | 504 kts | 247° |
| 2026-04-20 16:47 | 2.57580 | 15.08533 | 37744 ft | 504 kts | 247° |
| 2026-04-20 16:47 | 2.55160 | 15.01936 | 37741 ft | 505 kts | 247° |
| 2026-04-20 16:48 | 2.52740 | 14.95338 | 37746 ft | 505 kts | 247° |
| 2026-04-20 16:48 | 2.50323 | 14.88748 | 37739 ft | 504 kts | 247° |
| 2026-04-20 16:49 | 2.47909 | 14.82168 | 37743 ft | 504 kts | 247° |
| 2026-04-20 16:49 | 2.45507 | 14.75624 | 37744 ft | 503 kts | 247° |
| 2026-04-20 16:50 | 2.43021 | 14.69079 | 37739 ft | 504 kts | 245° |
| 2026-04-20 16:50 | 2.40525 | 14.62535 | 37741 ft | 504 kts | 245° |
| 2026-04-20 16:51 | 2.38081 | 14.55966 | 37744 ft | 504 kts | 246° |
| 2026-04-20 16:51 | 2.35667 | 14.49395 | 37743 ft | 503 kts | 246° |
| 2026-04-20 16:52 | 2.33256 | 14.42820 | 37743 ft | 504 kts | 246° |
| 2026-04-20 16:52 | 2.30843 | 14.36244 | 37742 ft | 504 kts | 246° |
| 2026-04-20 16:53 | 2.28429 | 14.29675 | 37742 ft | 504 kts | 246° |
| 2026-04-20 16:53 | 2.26009 | 14.23102 | 37742 ft | 504 kts | 246° |
| 2026-04-20 16:54 | 2.23607 | 14.16560 | 37741 ft | 503 kts | 246° |
| 2026-04-20 16:54 | 2.21191 | 14.09983 | 37743 ft | 502 kts | 246° |
| 2026-04-20 16:55 | 2.18780 | 14.03423 | 37744 ft | 503 kts | 246° |
| 2026-04-20 16:55 | 2.16367 | 13.96861 | 37742 ft | 503 kts | 246° |
| 2026-04-20 16:56 | 2.13953 | 13.90296 | 37743 ft | 503 kts | 246° |
| 2026-04-20 16:56 | 2.11540 | 13.83736 | 37744 ft | 503 kts | 246° |
| 2026-04-20 16:57 | 2.09130 | 13.77183 | 37737 ft | 502 kts | 246° |
| 2026-04-20 16:57 | 2.06737 | 13.70679 | 37736 ft | 502 kts | 246° |
| 2026-04-20 16:58 | 2.04327 | 13.64131 | 37736 ft | 502 kts | 246° |
| 2026-04-20 16:58 | 2.01918 | 13.57585 | 37740 ft | 502 kts | 246° |
| 2026-04-20 16:59 | 1.99508 | 13.51037 | 37737 ft | 502 kts | 246° |
| 2026-04-20 16:59 | 1.97100 | 13.44494 | 37739 ft | 501 kts | 246° |
| 2026-04-20 17:00 | 1.93492 | 13.34693 | 37741 ft | 500 kts | 246° |
| 2026-04-20 17:01 | 1.91090 | 13.28169 | 37742 ft | 500 kts | 246° |
| 2026-04-20 17:01 | 1.88687 | 13.21646 | 37742 ft | 500 kts | 246° |
| 2026-04-20 17:02 | 1.86284 | 13.15122 | 37743 ft | 500 kts | 246° |
| 2026-04-20 17:02 | 1.83891 | 13.08629 | 37744 ft | 500 kts | 247° |
| 2026-04-20 17:03 | 1.81489 | 13.02107 | 37748 ft | 500 kts | 247° |
| 2026-04-20 17:03 | 1.79088 | 12.95589 | 37747 ft | 500 kts | 247° |
| 2026-04-20 17:04 | 1.76681 | 12.89059 | 37748 ft | 500 kts | 247° |
| 2026-04-20 17:04 | 1.74278 | 12.82539 | 37749 ft | 500 kts | 247° |
| 2026-04-20 17:05 | 1.71873 | 12.76014 | 37755 ft | 500 kts | 247° |
| 2026-04-20 17:05 | 1.69475 | 12.69508 | 37751 ft | 498 kts | 247° |
| 2026-04-20 17:06 | 1.67078 | 12.63008 | 37750 ft | 498 kts | 247° |
| 2026-04-20 17:06 | 1.64683 | 12.56513 | 37757 ft | 498 kts | 247° |
| 2026-04-20 17:07 | 1.62285 | 12.50009 | 37758 ft | 498 kts | 247° |
| 2026-04-20 17:07 | 1.59891 | 12.43520 | 37763 ft | 498 kts | 247° |
| 2026-04-20 17:08 | 1.57511 | 12.37068 | 37760 ft | 498 kts | 247° |
| 2026-04-20 17:08 | 1.55119 | 12.30579 | 37765 ft | 497 kts | 247° |
| 2026-04-20 17:09 | 1.52766 | 12.24064 | 37766 ft | 497 kts | 247° |
| 2026-04-20 17:09 | 1.50397 | 12.17572 | 37772 ft | 497 kts | 247° |
| 2026-04-20 17:10 | 1.48010 | 12.11083 | 37773 ft | 497 kts | 247° |
| 2026-04-20 17:10 | 1.45623 | 12.04606 | 37774 ft | 496 kts | 247° |
| 2026-04-20 17:11 | 1.43235 | 11.98132 | 37778 ft | 496 kts | 247° |
| 2026-04-20 17:11 | 1.40849 | 11.91664 | 37777 ft | 496 kts | 247° |
| 2026-04-20 17:12 | 1.38461 | 11.85196 | 37777 ft | 496 kts | 247° |
| 2026-04-20 17:12 | 1.36074 | 11.78728 | 37773 ft | 496 kts | 247° |
| 2026-04-20 17:13 | 1.33687 | 11.72262 | 37780 ft | 496 kts | 247° |
| 2026-04-20 17:13 | 1.31297 | 11.65787 | 37778 ft | 496 kts | 247° |
| 2026-04-20 17:14 | 1.28906 | 11.59312 | 37776 ft | 497 kts | 247° |
| 2026-04-20 17:14 | 1.26677 | 11.52828 | 37774 ft | 499 kts | 254° |
| 2026-04-20 17:15 | 1.25360 | 11.46024 | 37501 ft | 497 kts | 257° |
| 2026-04-20 17:15 | 1.24762 | 11.42626 | 37253 ft | 497 kts | 257° |
| 2026-04-20 17:15 | 1.24164 | 11.39239 | 36839 ft | 493 kts | 257° |
| 2026-04-20 17:15 | 1.23567 | 11.35874 | 36234 ft | 491 kts | 257° |
| 2026-04-20 17:16 | 1.22970 | 11.32516 | 35589 ft | 491 kts | 259° |
| 2026-04-20 17:16 | 1.22397 | 11.29148 | 34926 ft | 492 kts | 260° |
| 2026-04-20 17:16 | 1.21829 | 11.25772 | 34195 ft | 494 kts | 259° |
| 2026-04-20 17:16 | 1.21244 | 11.22375 | 33477 ft | 496 kts | 259° |
| 2026-04-20 17:17 | 1.20652 | 11.18989 | 32946 ft | 493 kts | 259° |
| 2026-04-20 17:17 | 1.20060 | 11.15627 | 32419 ft | 490 kts | 259° |
| 2026-04-20 17:17 | 1.19468 | 11.12289 | 31888 ft | 487 kts | 259° |
| 2026-04-20 17:17 | 1.18877 | 11.08971 | 31361 ft | 484 kts | 259° |
| 2026-04-20 17:18 | 1.18158 | 11.05692 | 30846 ft | 480 kts | 254° |
| 2026-04-20 17:18 | 1.17232 | 11.02498 | 30346 ft | 478 kts | 252° |
| 2026-04-20 17:18 | 1.16273 | 10.99327 | 29823 ft | 475 kts | 252° |
| 2026-04-20 17:18 | 1.15318 | 10.96176 | 29265 ft | 472 kts | 252° |
| 2026-04-20 17:19 | 1.14372 | 10.93047 | 28745 ft | 468 kts | 252° |
| 2026-04-20 17:19 | 1.13437 | 10.89948 | 28255 ft | 464 kts | 253° |
| 2026-04-20 17:19 | 1.12510 | 10.86875 | 27760 ft | 460 kts | 253° |
| 2026-04-20 17:19 | 1.11591 | 10.83823 | 27273 ft | 457 kts | 253° |
| 2026-04-20 17:20 | 1.10679 | 10.80794 | 26785 ft | 453 kts | 253° |
| 2026-04-20 17:20 | 1.09775 | 10.77792 | 26296 ft | 450 kts | 253° |
| 2026-04-20 17:20 | 1.09180 | 10.75814 | 25983 ft | 448 kts | 253° |
| 2026-04-20 17:20 | 1.08285 | 10.72843 | 25505 ft | 445 kts | 253° |
| 2026-04-20 17:21 | 1.07397 | 10.69892 | 25004 ft | 442 kts | 253° |
| 2026-04-20 17:21 | 1.06515 | 10.66961 | 24527 ft | 440 kts | 253° |
| 2026-04-20 17:21 | 1.05637 | 10.64044 | 24048 ft | 437 kts | 253° |
| 2026-04-20 17:21 | 1.04765 | 10.61147 | 23561 ft | 434 kts | 253° |
| 2026-04-20 17:22 | 1.03896 | 10.58262 | 23029 ft | 432 kts | 253° |
| 2026-04-20 17:22 | 1.03035 | 10.55405 | 22511 ft | 428 kts | 253° |
| 2026-04-20 17:22 | 1.02182 | 10.52568 | 22029 ft | 425 kts | 253° |
| 2026-04-20 17:22 | 1.01335 | 10.49756 | 21544 ft | 421 kts | 253° |
| 2026-04-20 17:23 | 1.00493 | 10.46957 | 21056 ft | 419 kts | 253° |
| 2026-04-20 17:23 | 0.99657 | 10.44180 | 20579 ft | 417 kts | 253° |
| 2026-04-20 17:23 | 0.98825 | 10.41412 | 20103 ft | 414 kts | 253° |
| 2026-04-20 17:23 | 0.98000 | 10.38666 | 19618 ft | 411 kts | 253° |
| 2026-04-20 17:24 | 0.97179 | 10.35935 | 19121 ft | 409 kts | 253° |
| 2026-04-20 17:24 | 0.96364 | 10.33221 | 18654 ft | 407 kts | 253° |
| 2026-04-20 17:24 | 0.95552 | 10.30521 | 18175 ft | 405 kts | 252° |
| 2026-04-20 17:24 | 0.94745 | 10.27835 | 17647 ft | 402 kts | 252° |
| 2026-04-20 17:25 | 0.93944 | 10.25170 | 17154 ft | 399 kts | 252° |
| 2026-04-20 17:25 | 0.93148 | 10.22523 | 16690 ft | 397 kts | 252° |
| 2026-04-20 17:25 | 0.92356 | 10.19890 | 16216 ft | 394 kts | 252° |
| 2026-04-20 17:25 | 0.91569 | 10.17270 | 15751 ft | 392 kts | 252° |
| 2026-04-20 17:26 | 0.90787 | 10.14670 | 15286 ft | 390 kts | 252° |
| 2026-04-20 17:26 | 0.90008 | 10.12079 | 14812 ft | 389 kts | 252° |
| 2026-04-20 17:26 | 0.89242 | 10.09533 | 14354 ft | 387 kts | 252° |
| 2026-04-20 17:26 | 0.88467 | 10.06956 | 13894 ft | 387 kts | 252° |
| 2026-04-20 17:27 | 0.87692 | 10.04380 | 13401 ft | 386 kts | 252° |
| 2026-04-20 17:27 | 0.86924 | 10.01826 | 12903 ft | 382 kts | 252° |
| 2026-04-20 17:27 | 0.86161 | 9.99289 | 12458 ft | 379 kts | 252° |
| 2026-04-20 17:27 | 0.85404 | 9.96773 | 12004 ft | 376 kts | 252° |
| 2026-04-20 17:28 | 0.84655 | 9.94279 | 11550 ft | 374 kts | 252° |
| 2026-04-20 17:28 | 0.83910 | 9.91801 | 11101 ft | 371 kts | 252° |
| 2026-04-20 17:28 | 0.83170 | 9.89340 | 10683 ft | 368 kts | 252° |
| 2026-04-20 17:28 | 0.82442 | 9.86888 | 10374 ft | 370 kts | 252° |
| 2026-04-20 17:29 | 0.81720 | 9.84432 | 10177 ft | 362 kts | 252° |
| 2026-04-20 17:29 | 0.81023 | 9.82064 | 9987 ft | 349 kts | 253° |
| 2026-04-20 17:29 | 0.80354 | 9.79789 | 9825 ft | 336 kts | 252° |
| 2026-04-20 17:29 | 0.79704 | 9.77587 | 9541 ft | 322 kts | 249° |
| 2026-04-20 17:30 | 0.79035 | 9.75497 | 8950 ft | 309 kts | 247° |
| 2026-04-20 17:30 | 0.78368 | 9.73516 | 8645 ft | 307 kts | 245° |
| 2026-04-20 17:30 | 0.77672 | 9.71489 | 8408 ft | 309 kts | 245° |
| 2026-04-20 17:30 | 0.77007 | 9.69451 | 8304 ft | 308 kts | 246° |
| 2026-04-20 17:31 | 0.76372 | 9.67429 | 7984 ft | 303 kts | 247° |
| 2026-04-20 17:31 | 0.75759 | 9.65415 | 7587 ft | 302 kts | 247° |
| 2026-04-20 17:31 | 0.75154 | 9.63400 | 7313 ft | 303 kts | 247° |
| 2026-04-20 17:31 | 0.74554 | 9.61386 | 7129 ft | 303 kts | 248° |
| 2026-04-20 17:32 | 0.73956 | 9.59366 | 6997 ft | 303 kts | 248° |
| 2026-04-20 17:32 | 0.73365 | 9.57382 | 6810 ft | 291 kts | 245° |
| 2026-04-20 17:32 | 0.72783 | 9.55481 | 6314 ft | 286 kts | 245° |
| 2026-04-20 17:32 | 0.72159 | 9.53543 | 6141 ft | 298 kts | 242° |
| 2026-04-20 17:33 | 0.71488 | 9.51594 | 5939 ft | 296 kts | 240° |
| 2026-04-20 17:33 | 0.70909 | 9.49624 | 5708 ft | 294 kts | 257° |
| 2026-04-20 17:33 | 0.70525 | 9.47664 | 5280 ft | 284 kts | 258° |
| 2026-04-20 17:33 | 0.70147 | 9.45796 | 5143 ft | 267 kts | 256° |
| 2026-04-20 17:34 | 0.69718 | 9.44010 | 4867 ft | 263 kts | 253° |
| 2026-04-20 17:34 | 0.69221 | 9.42246 | 4625 ft | 263 kts | 251° |
| 2026-04-20 17:34 | 0.68635 | 9.40526 | 4378 ft | 260 kts | 244° |
| 2026-04-20 17:34 | 0.67858 | 9.38907 | 4067 ft | 256 kts | 242° |
| 2026-04-20 17:35 | 0.67069 | 9.37310 | 3881 ft | 255 kts | 242° |
| 2026-04-20 17:35 | 0.66298 | 9.35716 | 3680 ft | 254 kts | 240° |
| 2026-04-20 17:35 | 0.65372 | 9.34253 | 3468 ft | 244 kts | 224° |
| 2026-04-20 17:35 | 0.64001 | 9.33356 | 3268 ft | 230 kts | 192° |
| 2026-04-20 17:36 | 0.62474 | 9.33317 | 3139 ft | 217 kts | 166° |
| 2026-04-20 17:36 | 0.61088 | 9.33854 | 2838 ft | 215 kts | 154° |
| 2026-04-20 17:36 | 0.59741 | 9.34554 | 2454 ft | 222 kts | 153° |
| 2026-04-20 17:36 | 0.58401 | 9.35277 | 2105 ft | 218 kts | 152° |
| 2026-04-20 17:37 | 0.57147 | 9.35978 | 1988 ft | 193 kts | 147° |
| 2026-04-20 17:37 | 0.56083 | 9.36597 | 1965 ft | 166 kts | 150° |
| 2026-04-20 17:37 | 0.55172 | 9.37018 | 1978 ft | 151 kts | 157° |
| 2026-04-20 17:37 | 0.54163 | 9.37435 | 1567 ft | 157 kts | 164° |
| 2026-04-20 17:38 | 0.53169 | 9.37796 | 1299 ft | 146 kts | 167° |
| 2026-04-20 17:38 | 0.52281 | 9.38164 | 1397 ft | 116 kts | 162° |
| 2026-04-20 17:38 | 0.51364 | 9.38600 | 1195 ft | 168 kts | 157° |
| 2026-04-20 17:38 | 0.50282 | 9.39144 | 795 ft | 173 kts | 159° |
| 2026-04-20 17:39 | 0.49197 | 9.39649 | 457 ft | 172 kts | 159° |
| 2026-04-20 17:39 | 0.48166 | 9.40139 | 240 ft | 157 kts | 158° |
| 2026-04-20 17:39 | 0.47215 | 9.40586 | 92 ft | 146 kts | 155° |
| 2026-04-20 17:39 | 0.46358 | 9.40992 | 41 ft | 112 kts | 153° |
| 2026-04-20 17:40 | 0.45955 | 9.41189 | 39 ft | 26 kts | 153° |
| 2026-04-20 17:40 | 0.45853 | 9.41213 | 38 ft | 8 kts | 199° |
| 2026-04-20 17:40 | 0.45819 | 9.41188 | 38 ft | 0 kts | 232° |
| 2026-04-20 17:43 | 0.45804 | 9.41132 | 40 ft | 7 kts | 278° |
| 2026-04-20 17:43 | 0.45810 | 9.41115 | 40 ft | 1 kts | 291° |
| 2026-04-20 17:43 | 0.45802 | 9.41090 | 41 ft | 10 kts | 239° |
| 2026-04-20 17:43 | 0.45775 | 9.41090 | 41 ft | 2 kts | 124° |
| 2026-04-20 17:44 | 0.45730 | 9.41163 | 40 ft | 0 kts | 143° |
| 2026-04-20 17:44 | 0.45720 | 9.41159 | 40 ft | 4 kts | 210° |
| 2026-04-20 17:44 | 0.45722 | 9.41146 | 40 ft | 2 kts | 282° |
| 2026-04-20 17:44 | 0.45724 | 9.41123 | 41 ft | 1 kts | 246° |
| 2026-04-20 17:45 | 0.45722 | 9.41120 | 41 ft | 4 kts | 241° |
| 2026-04-20 17:45 | 0.45716 | 9.41113 | 41 ft | 0 kts | 232° |
| 2026-04-20 17:46 | 0.45697 | 9.41117 | 41 ft | 0 kts | 152° |